Terminal Aerodrome Forecast
Issued by NWS

Home | Current Version | Previous Version | Text Only | Print | Product List | Glossary On
Versions: 1 2 3 4 5 6 7 8 9 10 11 12 13 14
777
FTAK31 PAJN 122352
TAFAWG
TAF
PAWG 122352Z 1300/1324 31003KT P6SM BKN070
     FM130200 11006KT P6SM FEW030 BKN060
     FM131100 11010KT P6SM -SHRA SCT030 OVC050
     FM131400 11010G18KT P6SM -SHRA SCT030 OVC060
     FM132000 10009KT P6SM VCSH BKN060
      AMD LTD TO CLD VIS AND WIND 1212/1215=

USA.gov is the U.S. government's official web portal to all federal, state and local government web resources and services.